sensor_id;sensor_type;location;lat;lon;timestamp;P1;durP1;ratioP1;P2;durP2;ratioP2
18125;SDS011;53956;52.442;13.284;2022-12-18T00:00:04;63.53;;;26.97;;
18125;SDS011;53956;52.442;13.284;2022-12-18T00:02:38;63.50;;;26.60;;
18125;SDS011;53956;52.442;13.284;2022-12-18T00:05:05;60.63;;;26.03;;
18125;SDS011;53956;52.442;13.284;2022-12-18T00:07:35;60.00;;;26.23;;
18125;SDS011;53956;52.442;13.284;2022-12-18T00:10:02;66.03;;;27.50;;
18125;SDS011;53956;52.442;13.284;2022-12-18T00:12:29;64.60;;;27.00;;
18125;SDS011;53956;52.442;13.284;2022-12-18T00:14:56;66.50;;;27.87;;
18125;SDS011;53956;52.442;13.284;2022-12-18T00:17:24;60.37;;;26.03;;
18125;SDS011;53956;52.442;13.284;2022-12-18T00:19:50;66.33;;;28.87;;
18125;SDS011;53956;52.442;13.284;2022-12-18T00:22:17;65.83;;;28.10;;
18125;SDS011;53956;52.442;13.284;2022-12-18T00:24:44;70.97;;;28.87;;
18125;SDS011;53956;52.442;13.284;2022-12-18T00:27:10;65.37;;;28.07;;
18125;SDS011;53956;52.442;13.284;2022-12-18T00:29:37;70.30;;;28.10;;
18125;SDS011;53956;52.442;13.284;2022-12-18T00:32:06;59.00;;;25.60;;
18125;SDS011;53956;52.442;13.284;2022-12-18T00:34:35;73.93;;;26.53;;
18125;SDS011;53956;52.442;13.284;2022-12-18T00:37:01;67.97;;;28.80;;
18125;SDS011;53956;52.442;13.284;2022-12-18T00:39:28;62.23;;;26.17;;
18125;SDS011;53956;52.442;13.284;2022-12-18T00:41:55;61.80;;;25.77;;
18125;SDS011;53956;52.442;13.284;2022-12-18T00:44:39;65.70;;;27.37;;
18125;SDS011;53956;52.442;13.284;2022-12-18T00:47:05;59.83;;;25.97;;
18125;SDS011;53956;52.442;13.284;2022-12-18T00:49:32;64.50;;;26.87;;
18125;SDS011;53956;52.442;13.284;2022-12-18T00:52:00;63.47;;;28.87;;
18125;SDS011;53956;52.442;13.284;2022-12-18T00:54:27;60.07;;;25.63;;
18125;SDS011;53956;52.442;13.284;2022-12-18T00:56:53;64.77;;;27.50;;
18125;SDS011;53956;52.442;13.284;2022-12-18T00:59:21;64.03;;;27.50;;
18125;SDS011;53956;52.442;13.284;2022-12-18T01:01:49;65.80;;;27.30;;
18125;SDS011;53956;52.442;13.284;2022-12-18T01:04:16;62.20;;;25.77;;
18125;SDS011;53956;52.442;13.284;2022-12-18T01:06:45;66.37;;;26.53;;
18125;SDS011;53956;52.442;13.284;2022-12-18T01:09:12;61.03;;;26.33;;
18125;SDS011;53956;52.442;13.284;2022-12-18T01:11:39;60.23;;;26.50;;
18125;SDS011;53956;52.442;13.284;2022-12-18T01:14:05;58.77;;;25.63;;
18125;SDS011;53956;52.442;13.284;2022-12-18T01:16:32;59.73;;;26.40;;
18125;SDS011;53956;52.442;13.284;2022-12-18T01:18:59;56.07;;;24.17;;
18125;SDS011;53956;52.442;13.284;2022-12-18T01:21:26;59.27;;;23.87;;
18125;SDS011;53956;52.442;13.284;2022-12-18T01:23:54;56.87;;;23.83;;
18125;SDS011;53956;52.442;13.284;2022-12-18T01:26:22;56.23;;;24.43;;
18125;SDS011;53956;52.442;13.284;2022-12-18T01:28:50;59.87;;;24.00;;
18125;SDS011;53956;52.442;13.284;2022-12-18T01:31:17;62.20;;;25.10;;
18125;SDS011;53956;52.442;13.284;2022-12-18T01:33:45;57.07;;;25.33;;
18125;SDS011;53956;52.442;13.284;2022-12-18T01:36:17;57.33;;;24.97;;
18125;SDS011;53956;52.442;13.284;2022-12-18T01:38:45;61.90;;;24.93;;
18125;SDS011;53956;52.442;13.284;2022-12-18T01:41:13;60.03;;;26.27;;
18125;SDS011;53956;52.442;13.284;2022-12-18T01:43:44;85.13;;;26.23;;
18125;SDS011;53956;52.442;13.284;2022-12-18T01:46:13;60.80;;;25.17;;
18125;SDS011;53956;52.442;13.284;2022-12-18T01:48:40;60.93;;;27.17;;
18125;SDS011;53956;52.442;13.284;2022-12-18T01:51:09;59.27;;;25.27;;
18125;SDS011;53956;52.442;13.284;2022-12-18T01:53:37;60.37;;;24.87;;
18125;SDS011;53956;52.442;13.284;2022-12-18T01:56:06;55.97;;;24.13;;
18125;SDS011;53956;52.442;13.284;2022-12-18T01:58:37;61.40;;;24.67;;
18125;SDS011;53956;52.442;13.284;2022-12-18T02:01:09;57.47;;;24.73;;
18125;SDS011;53956;52.442;13.284;2022-12-18T02:03:36;57.23;;;24.33;;
18125;SDS011;53956;52.442;13.284;2022-12-18T02:06:06;55.93;;;23.97;;
18125;SDS011;53956;52.442;13.284;2022-12-18T02:08:40;59.00;;;24.20;;
18125;SDS011;53956;52.442;13.284;2022-12-18T02:11:16;61.67;;;25.70;;
18125;SDS011;53956;52.442;13.284;2022-12-18T02:13:53;57.83;;;24.60;;
18125;SDS011;53956;52.442;13.284;2022-12-18T02:16:29;63.77;;;25.60;;
18125;SDS011;53956;52.442;13.284;2022-12-18T02:19:01;61.30;;;26.60;;
18125;SDS011;53956;52.442;13.284;2022-12-18T02:21:44;63.07;;;26.87;;
18125;SDS011;53956;52.442;13.284;2022-12-18T02:24:22;67.80;;;26.23;;
18125;SDS011;53956;52.442;13.284;2022-12-18T02:26:57;66.93;;;26.87;;
18125;SDS011;53956;52.442;13.284;2022-12-18T02:29:29;63.43;;;25.93;;
18125;SDS011;53956;52.442;13.284;2022-12-18T02:32:00;56.17;;;24.40;;
18125;SDS011;53956;52.442;13.284;2022-12-18T02:34:30;59.93;;;25.27;;
18125;SDS011;53956;52.442;13.284;2022-12-18T02:37:00;60.00;;;26.20;;
18125;SDS011;53956;52.442;13.284;2022-12-18T02:39:30;54.43;;;24.43;;
18125;SDS011;53956;52.442;13.284;2022-12-18T02:42:03;59.27;;;24.87;;
18125;SDS011;53956;52.442;13.284;2022-12-18T02:44:33;60.67;;;25.80;;
18125;SDS011;53956;52.442;13.284;2022-12-18T02:47:00;59.43;;;26.07;;
18125;SDS011;53956;52.442;13.284;2022-12-18T02:49:30;62.03;;;25.20;;
18125;SDS011;53956;52.442;13.284;2022-12-18T02:52:05;61.53;;;26.33;;
18125;SDS011;53956;52.442;13.284;2022-12-18T02:54:42;66.20;;;27.57;;
18125;SDS011;53956;52.442;13.284;2022-12-18T02:57:18;63.43;;;26.97;;
18125;SDS011;53956;52.442;13.284;2022-12-18T02:59:54;68.23;;;27.10;;
18125;SDS011;53956;52.442;13.284;2022-12-18T03:02:26;67.20;;;26.77;;
18125;SDS011;53956;52.442;13.284;2022-12-18T03:05:01;66.00;;;25.67;;
18125;SDS011;53956;52.442;13.284;2022-12-18T03:07:35;71.70;;;28.50;;
18125;SDS011;53956;52.442;13.284;2022-12-18T03:10:09;71.47;;;28.90;;
18125;SDS011;53956;52.442;13.284;2022-12-18T03:12:42;66.57;;;27.23;;
18125;SDS011;53956;52.442;13.284;2022-12-18T03:15:14;63.57;;;26.63;;
18125;SDS011;53956;52.442;13.284;2022-12-18T03:18:02;66.70;;;26.93;;
18125;SDS011;53956;52.442;13.284;2022-12-18T03:20:32;65.10;;;27.87;;
18125;SDS011;53956;52.442;13.284;2022-12-18T03:23:02;67.87;;;28.07;;
18125;SDS011;53956;52.442;13.284;2022-12-18T03:25:34;75.23;;;27.90;;
18125;SDS011;53956;52.442;13.284;2022-12-18T03:28:07;69.97;;;26.60;;
18125;SDS011;53956;52.442;13.284;2022-12-18T03:30:38;69.67;;;27.30;;
18125;SDS011;53956;52.442;13.284;2022-12-18T03:33:07;70.47;;;28.37;;
18125;SDS011;53956;52.442;13.284;2022-12-18T03:35:43;76.33;;;29.07;;
18125;SDS011;53956;52.442;13.284;2022-12-18T03:38:11;71.97;;;29.20;;
18125;SDS011;53956;52.442;13.284;2022-12-18T03:40:50;77.03;;;29.60;;
18125;SDS011;53956;52.442;13.284;2022-12-18T03:43:32;75.97;;;29.57;;
18125;SDS011;53956;52.442;13.284;2022-12-18T03:46:07;68.53;;;27.77;;
18125;SDS011;53956;52.442;13.284;2022-12-18T03:48:44;73.67;;;29.23;;
18125;SDS011;53956;52.442;13.284;2022-12-18T03:51:17;71.57;;;28.30;;
18125;SDS011;53956;52.442;13.284;2022-12-18T03:53:51;72.87;;;28.40;;
18125;SDS011;53956;52.442;13.284;2022-12-18T03:56:29;72.80;;;28.60;;
18125;SDS011;53956;52.442;13.284;2022-12-18T03:59:01;73.63;;;29.43;;
18125;SDS011;53956;52.442;13.284;2022-12-18T04:01:32;75.63;;;28.93;;
18125;SDS011;53956;52.442;13.284;2022-12-18T04:04:01;72.03;;;28.90;;
18125;SDS011;53956;52.442;13.284;2022-12-18T04:06:33;74.67;;;28.60;;
18125;SDS011;53956;52.442;13.284;2022-12-18T04:09:00;67.63;;;27.90;;
18125;SDS011;53956;52.442;13.284;2022-12-18T04:11:29;73.67;;;28.67;;
18125;SDS011;53956;52.442;13.284;2022-12-18T04:13:56;78.03;;;28.10;;
18125;SDS011;53956;52.442;13.284;2022-12-18T04:16:25;73.50;;;28.93;;
18125;SDS011;53956;52.442;13.284;2022-12-18T04:18:55;66.53;;;28.33;;
18125;SDS011;53956;52.442;13.284;2022-12-18T04:21:26;72.80;;;28.53;;
18125;SDS011;53956;52.442;13.284;2022-12-18T04:23:53;71.53;;;29.50;;
18125;SDS011;53956;52.442;13.284;2022-12-18T04:26:21;73.10;;;29.87;;
18125;SDS011;53956;52.442;13.284;2022-12-18T04:28:58;76.80;;;30.00;;
18125;SDS011;53956;52.442;13.284;2022-12-18T04:31:28;76.47;;;29.80;;
18125;SDS011;53956;52.442;13.284;2022-12-18T04:33:55;70.90;;;28.97;;
18125;SDS011;53956;52.442;13.284;2022-12-18T04:36:22;82.27;;;31.60;;
18125;SDS011;53956;52.442;13.284;2022-12-18T04:38:49;78.83;;;31.33;;
18125;SDS011;53956;52.442;13.284;2022-12-18T04:41:16;84.03;;;31.77;;
18125;SDS011;53956;52.442;13.284;2022-12-18T04:43:46;84.17;;;30.93;;
18125;SDS011;53956;52.442;13.284;2022-12-18T04:46:12;84.97;;;31.90;;
18125;SDS011;53956;52.442;13.284;2022-12-18T04:48:41;70.90;;;29.27;;
18125;SDS011;53956;52.442;13.284;2022-12-18T04:51:07;72.40;;;28.20;;
18125;SDS011;53956;52.442;13.284;2022-12-18T04:53:34;72.57;;;28.47;;
18125;SDS011;53956;52.442;13.284;2022-12-18T04:56:05;76.77;;;29.93;;
18125;SDS011;53956;52.442;13.284;2022-12-18T04:58:33;77.00;;;30.13;;
18125;SDS011;53956;52.442;13.284;2022-12-18T05:00:59;81.33;;;31.27;;
18125;SDS011;53956;52.442;13.284;2022-12-18T05:03:28;89.63;;;31.73;;
18125;SDS011;53956;52.442;13.284;2022-12-18T05:05:56;79.60;;;31.00;;
18125;SDS011;53956;52.442;13.284;2022-12-18T05:08:23;79.63;;;30.70;;
18125;SDS011;53956;52.442;13.284;2022-12-18T05:10:51;82.27;;;31.90;;
18125;SDS011;53956;52.442;13.284;2022-12-18T05:13:24;75.63;;;30.27;;
18125;SDS011;53956;52.442;13.284;2022-12-18T05:15:51;77.53;;;30.47;;
18125;SDS011;53956;52.442;13.284;2022-12-18T05:18:18;77.60;;;31.00;;
18125;SDS011;53956;52.442;13.284;2022-12-18T05:20:44;78.20;;;30.13;;
18125;SDS011;53956;52.442;13.284;2022-12-18T05:23:13;77.10;;;30.33;;
18125;SDS011;53956;52.442;13.284;2022-12-18T05:25:39;74.63;;;29.53;;
18125;SDS011;53956;52.442;13.284;2022-12-18T05:28:06;75.60;;;30.87;;
18125;SDS011;53956;52.442;13.284;2022-12-18T05:30:33;74.00;;;30.07;;
18125;SDS011;53956;52.442;13.284;2022-12-18T05:33:01;75.63;;;30.70;;
18125;SDS011;53956;52.442;13.284;2022-12-18T05:35:28;66.63;;;27.40;;
18125;SDS011;53956;52.442;13.284;2022-12-18T05:37:55;68.90;;;29.43;;
18125;SDS011;53956;52.442;13.284;2022-12-18T05:40:23;71.67;;;27.93;;
18125;SDS011;53956;52.442;13.284;2022-12-18T05:42:49;63.97;;;27.67;;
18125;SDS011;53956;52.442;13.284;2022-12-18T05:45:16;69.07;;;29.50;;
18125;SDS011;53956;52.442;13.284;2022-12-18T05:47:43;63.30;;;28.17;;
18125;SDS011;53956;52.442;13.284;2022-12-18T05:50:10;66.87;;;28.23;;
18125;SDS011;53956;52.442;13.284;2022-12-18T05:52:36;66.03;;;26.77;;
18125;SDS011;53956;52.442;13.284;2022-12-18T05:55:03;53.67;;;26.17;;
18125;SDS011;53956;52.442;13.284;2022-12-18T05:57:31;53.73;;;25.57;;
18125;SDS011;53956;52.442;13.284;2022-12-18T05:59:58;55.03;;;25.80;;
18125;SDS011;53956;52.442;13.284;2022-12-18T06:02:25;60.30;;;25.00;;
18125;SDS011;53956;52.442;13.284;2022-12-18T06:04:51;63.93;;;23.73;;
18125;SDS011;53956;52.442;13.284;2022-12-18T06:07:18;51.37;;;23.90;;
18125;SDS011;53956;52.442;13.284;2022-12-18T06:09:45;60.17;;;26.80;;
18125;SDS011;53956;52.442;13.284;2022-12-18T06:12:11;56.53;;;26.60;;
18125;SDS011;53956;52.442;13.284;2022-12-18T06:14:39;54.13;;;25.63;;
18125;SDS011;53956;52.442;13.284;2022-12-18T06:17:06;56.60;;;25.23;;
18125;SDS011;53956;52.442;13.284;2022-12-18T06:19:33;54.60;;;25.80;;
18125;SDS011;53956;52.442;13.284;2022-12-18T06:21:59;57.17;;;25.73;;
18125;SDS011;53956;52.442;13.284;2022-12-18T06:24:26;57.83;;;26.03;;
18125;SDS011;53956;52.442;13.284;2022-12-18T06:26:52;59.13;;;27.00;;
18125;SDS011;53956;52.442;13.284;2022-12-18T06:29:19;62.23;;;28.07;;
18125;SDS011;53956;52.442;13.284;2022-12-18T06:31:47;67.17;;;28.37;;
18125;SDS011;53956;52.442;13.284;2022-12-18T06:34:14;62.20;;;26.60;;
18125;SDS011;53956;52.442;13.284;2022-12-18T06:36:40;61.37;;;27.20;;
18125;SDS011;53956;52.442;13.284;2022-12-18T06:39:07;57.80;;;26.30;;
18125;SDS011;53956;52.442;13.284;2022-12-18T06:41:34;58.73;;;23.93;;
18125;SDS011;53956;52.442;13.284;2022-12-18T06:44:00;56.83;;;24.93;;
18125;SDS011;53956;52.442;13.284;2022-12-18T06:46:27;55.57;;;24.90;;
18125;SDS011;53956;52.442;13.284;2022-12-18T06:48:55;57.20;;;25.23;;
18125;SDS011;53956;52.442;13.284;2022-12-18T06:51:22;58.70;;;25.20;;
18125;SDS011;53956;52.442;13.284;2022-12-18T06:53:49;56.00;;;25.30;;
18125;SDS011;53956;52.442;13.284;2022-12-18T06:56:16;52.87;;;25.43;;
18125;SDS011;53956;52.442;13.284;2022-12-18T06:58:43;59.83;;;25.93;;
18125;SDS011;53956;52.442;13.284;2022-12-18T07:01:10;64.43;;;28.53;;
18125;SDS011;53956;52.442;13.284;2022-12-18T07:03:37;63.03;;;27.03;;
18125;SDS011;53956;52.442;13.284;2022-12-18T07:06:06;59.70;;;25.77;;
18125;SDS011;53956;52.442;13.284;2022-12-18T07:08:38;62.03;;;27.63;;
18125;SDS011;53956;52.442;13.284;2022-12-18T07:11:05;62.70;;;27.33;;
18125;SDS011;53956;52.442;13.284;2022-12-18T07:13:32;65.70;;;28.67;;
18125;SDS011;53956;52.442;13.284;2022-12-18T07:16:05;68.20;;;27.87;;
18125;SDS011;53956;52.442;13.284;2022-12-18T07:18:33;69.77;;;28.23;;
18125;SDS011;53956;52.442;13.284;2022-12-18T07:21:02;72.80;;;28.67;;
18125;SDS011;53956;52.442;13.284;2022-12-18T07:23:32;78.30;;;30.23;;
18125;SDS011;53956;52.442;13.284;2022-12-18T07:26:00;81.57;;;32.93;;
18125;SDS011;53956;52.442;13.284;2022-12-18T07:28:28;80.13;;;30.70;;
18125;SDS011;53956;52.442;13.284;2022-12-18T07:30:55;85.20;;;31.50;;
18125;SDS011;53956;52.442;13.284;2022-12-18T07:33:22;94.77;;;34.47;;
18125;SDS011;53956;52.442;13.284;2022-12-18T07:35:48;90.83;;;33.17;;
18125;SDS011;53956;52.442;13.284;2022-12-18T07:38:15;104.50;;;37.27;;
18125;SDS011;53956;52.442;13.284;2022-12-18T07:40:43;98.57;;;34.03;;
18125;SDS011;53956;52.442;13.284;2022-12-18T07:43:10;103.67;;;35.20;;
18125;SDS011;53956;52.442;13.284;2022-12-18T07:45:36;92.93;;;35.17;;
18125;SDS011;53956;52.442;13.284;2022-12-18T07:48:03;87.10;;;32.30;;
18125;SDS011;53956;52.442;13.284;2022-12-18T07:50:30;80.20;;;32.17;;
18125;SDS011;53956;52.442;13.284;2022-12-18T07:52:57;84.53;;;32.97;;
18125;SDS011;53956;52.442;13.284;2022-12-18T07:55:28;85.10;;;31.47;;
18125;SDS011;53956;52.442;13.284;2022-12-18T07:57:56;78.20;;;30.70;;
18125;SDS011;53956;52.442;13.284;2022-12-18T08:00:23;64.97;;;28.30;;
18125;SDS011;53956;52.442;13.284;2022-12-18T08:02:49;64.80;;;28.07;;
18125;SDS011;53956;52.442;13.284;2022-12-18T08:05:16;69.27;;;26.77;;
18125;SDS011;53956;52.442;13.284;2022-12-18T08:07:43;57.03;;;25.53;;
18125;SDS011;53956;52.442;13.284;2022-12-18T08:10:09;60.67;;;26.07;;
18125;SDS011;53956;52.442;13.284;2022-12-18T08:12:36;66.57;;;26.50;;
18125;SDS011;53956;52.442;13.284;2022-12-18T08:15:04;57.80;;;25.97;;
18125;SDS011;53956;52.442;13.284;2022-12-18T08:17:32;65.53;;;26.30;;
18125;SDS011;53956;52.442;13.284;2022-12-18T08:19:59;58.10;;;25.90;;
18125;SDS011;53956;52.442;13.284;2022-12-18T08:22:25;56.80;;;25.13;;
18125;SDS011;53956;52.442;13.284;2022-12-18T08:24:52;62.37;;;26.53;;
18125;SDS011;53956;52.442;13.284;2022-12-18T08:27:19;57.90;;;27.23;;
18125;SDS011;53956;52.442;13.284;2022-12-18T08:29:46;63.53;;;26.73;;
18125;SDS011;53956;52.442;13.284;2022-12-18T08:32:14;59.07;;;24.87;;
18125;SDS011;53956;52.442;13.284;2022-12-18T08:34:41;61.40;;;26.63;;
18125;SDS011;53956;52.442;13.284;2022-12-18T08:37:07;58.13;;;24.93;;
18125;SDS011;53956;52.442;13.284;2022-12-18T08:39:34;56.87;;;25.93;;
18125;SDS011;53956;52.442;13.284;2022-12-18T08:42:01;62.13;;;26.47;;
18125;SDS011;53956;52.442;13.284;2022-12-18T08:44:45;58.47;;;25.33;;
18125;SDS011;53956;52.442;13.284;2022-12-18T08:47:12;61.93;;;25.50;;
18125;SDS011;53956;52.442;13.284;2022-12-18T08:49:40;56.90;;;24.70;;
18125;SDS011;53956;52.442;13.284;2022-12-18T08:52:07;58.93;;;25.53;;
18125;SDS011;53956;52.442;13.284;2022-12-18T08:54:34;63.27;;;25.30;;
18125;SDS011;53956;52.442;13.284;2022-12-18T08:57:01;57.43;;;25.40;;
18125;SDS011;53956;52.442;13.284;2022-12-18T08:59:27;63.83;;;25.90;;
18125;SDS011;53956;52.442;13.284;2022-12-18T09:01:54;59.40;;;25.50;;
18125;SDS011;53956;52.442;13.284;2022-12-18T09:04:21;63.27;;;25.80;;
18125;SDS011;53956;52.442;13.284;2022-12-18T09:06:49;60.10;;;25.50;;
18125;SDS011;53956;52.442;13.284;2022-12-18T09:09:16;59.33;;;24.20;;
18125;SDS011;53956;52.442;13.284;2022-12-18T09:11:42;60.30;;;24.63;;
18125;SDS011;53956;52.442;13.284;2022-12-18T09:14:09;56.97;;;25.13;;
18125;SDS011;53956;52.442;13.284;2022-12-18T09:16:36;61.77;;;25.67;;
18125;SDS011;53956;52.442;13.284;2022-12-18T09:19:03;64.47;;;25.10;;
18125;SDS011;53956;52.442;13.284;2022-12-18T09:21:31;64.13;;;26.97;;
18125;SDS011;53956;52.442;13.284;2022-12-18T09:24:00;64.57;;;27.03;;
18125;SDS011;53956;52.442;13.284;2022-12-18T09:26:27;70.90;;;26.37;;
18125;SDS011;53956;52.442;13.284;2022-12-18T09:28:53;65.77;;;27.43;;
18125;SDS011;53956;52.442;13.284;2022-12-18T09:31:21;68.73;;;27.37;;
18125;SDS011;53956;52.442;13.284;2022-12-18T09:33:49;63.20;;;26.23;;
18125;SDS011;53956;52.442;13.284;2022-12-18T09:36:16;67.37;;;26.83;;
18125;SDS011;53956;52.442;13.284;2022-12-18T09:38:43;72.03;;;27.77;;
18125;SDS011;53956;52.442;13.284;2022-12-18T09:41:17;62.07;;;25.80;;
18125;SDS011;53956;52.442;13.284;2022-12-18T09:44:00;62.37;;;26.77;;
18125;SDS011;53956;52.442;13.284;2022-12-18T09:46:29;59.63;;;24.70;;
18125;SDS011;53956;52.442;13.284;2022-12-18T09:48:59;59.50;;;25.93;;
18125;SDS011;53956;52.442;13.284;2022-12-18T09:51:29;62.67;;;26.67;;
18125;SDS011;53956;52.442;13.284;2022-12-18T09:54:07;67.37;;;27.57;;
18125;SDS011;53956;52.442;13.284;2022-12-18T09:56:40;66.23;;;28.13;;
18125;SDS011;53956;52.442;13.284;2022-12-18T09:59:14;62.77;;;27.57;;
18125;SDS011;53956;52.442;13.284;2022-12-18T10:01:45;67.17;;;28.50;;
18125;SDS011;53956;52.442;13.284;2022-12-18T10:04:12;68.97;;;28.03;;
18125;SDS011;53956;52.442;13.284;2022-12-18T10:06:39;67.37;;;28.03;;
18125;SDS011;53956;52.442;13.284;2022-12-18T10:09:12;61.83;;;27.57;;
18125;SDS011;53956;52.442;13.284;2022-12-18T10:11:52;58.27;;;24.63;;
18125;SDS011;53956;52.442;13.284;2022-12-18T10:14:23;57.00;;;24.00;;
18125;SDS011;53956;52.442;13.284;2022-12-18T10:16:58;52.20;;;24.33;;
18125;SDS011;53956;52.442;13.284;2022-12-18T10:19:34;55.47;;;24.33;;
18125;SDS011;53956;52.442;13.284;2022-12-18T10:22:16;53.73;;;23.50;;
18125;SDS011;53956;52.442;13.284;2022-12-18T10:24:51;52.53;;;24.40;;
18125;SDS011;53956;52.442;13.284;2022-12-18T10:27:26;52.80;;;23.93;;
18125;SDS011;53956;52.442;13.284;2022-12-18T10:29:53;57.47;;;25.17;;
18125;SDS011;53956;52.442;13.284;2022-12-18T10:32:21;52.67;;;23.57;;
18125;SDS011;53956;52.442;13.284;2022-12-18T10:34:51;45.70;;;22.70;;
18125;SDS011;53956;52.442;13.284;2022-12-18T10:37:21;52.67;;;23.43;;
18125;SDS011;53956;52.442;13.284;2022-12-18T10:40:06;46.80;;;23.03;;
18125;SDS011;53956;52.442;13.284;2022-12-18T10:42:37;47.90;;;22.43;;
18125;SDS011;53956;52.442;13.284;2022-12-18T10:45:10;48.23;;;22.57;;
18125;SDS011;53956;52.442;13.284;2022-12-18T10:47:41;47.47;;;22.17;;
18125;SDS011;53956;52.442;13.284;2022-12-18T10:50:15;47.43;;;21.03;;
18125;SDS011;53956;52.442;13.284;2022-12-18T10:52:52;49.27;;;22.33;;
18125;SDS011;53956;52.442;13.284;2022-12-18T10:55:20;47.00;;;22.27;;
18125;SDS011;53956;52.442;13.284;2022-12-18T10:57:48;52.30;;;22.20;;
18125;SDS011;53956;52.442;13.284;2022-12-18T11:00:22;49.37;;;22.97;;
18125;SDS011;53956;52.442;13.284;2022-12-18T11:02:54;45.80;;;22.37;;
18125;SDS011;53956;52.442;13.284;2022-12-18T11:05:26;49.57;;;22.63;;
18125;SDS011;53956;52.442;13.284;2022-12-18T11:07:55;51.73;;;23.17;;
18125;SDS011;53956;52.442;13.284;2022-12-18T11:10:22;55.50;;;23.87;;
18125;SDS011;53956;52.442;13.284;2022-12-18T11:12:53;54.33;;;23.23;;
18125;SDS011;53956;52.442;13.284;2022-12-18T11:15:20;52.83;;;24.70;;
18125;SDS011;53956;52.442;13.284;2022-12-18T11:17:50;52.30;;;24.90;;
18125;SDS011;53956;52.442;13.284;2022-12-18T11:20:30;54.30;;;23.97;;
18125;SDS011;53956;52.442;13.284;2022-12-18T11:22:58;53.70;;;24.67;;
18125;SDS011;53956;52.442;13.284;2022-12-18T11:25:30;56.07;;;25.80;;
18125;SDS011;53956;52.442;13.284;2022-12-18T11:28:00;56.13;;;25.73;;
18125;SDS011;53956;52.442;13.284;2022-12-18T11:30:28;51.10;;;24.73;;
18125;SDS011;53956;52.442;13.284;2022-12-18T11:32:58;52.23;;;24.23;;
18125;SDS011;53956;52.442;13.284;2022-12-18T11:35:40;53.43;;;23.57;;
18125;SDS011;53956;52.442;13.284;2022-12-18T11:38:12;48.23;;;24.53;;
18125;SDS011;53956;52.442;13.284;2022-12-18T11:40:45;54.83;;;24.57;;
18125;SDS011;53956;52.442;13.284;2022-12-18T11:43:20;54.30;;;25.23;;
18125;SDS011;53956;52.442;13.284;2022-12-18T11:45:51;59.20;;;25.97;;
18125;SDS011;53956;52.442;13.284;2022-12-18T11:48:21;51.73;;;24.50;;
18125;SDS011;53956;52.442;13.284;2022-12-18T11:50:52;60.57;;;25.87;;
18125;SDS011;53956;52.442;13.284;2022-12-18T11:53:20;55.73;;;25.27;;
18125;SDS011;53956;52.442;13.284;2022-12-18T11:55:49;50.67;;;23.33;;
18125;SDS011;53956;52.442;13.284;2022-12-18T11:58:28;50.17;;;24.70;;
18125;SDS011;53956;52.442;13.284;2022-12-18T12:01:08;57.43;;;24.33;;
18125;SDS011;53956;52.442;13.284;2022-12-18T12:06:36;53.67;;;24.33;;
18125;SDS011;53956;52.442;13.284;2022-12-18T12:09:12;55.73;;;24.70;;
18125;SDS011;53956;52.442;13.284;2022-12-18T12:11:50;50.90;;;23.63;;
18125;SDS011;53956;52.442;13.284;2022-12-18T12:14:35;52.63;;;24.20;;
18125;SDS011;53956;52.442;13.284;2022-12-18T12:17:09;56.67;;;25.43;;
18125;SDS011;53956;52.442;13.284;2022-12-18T12:19:45;47.20;;;22.87;;
18125;SDS011;53956;52.442;13.284;2022-12-18T12:22:18;50.20;;;24.00;;
18125;SDS011;53956;52.442;13.284;2022-12-18T12:24:54;48.13;;;22.60;;
18125;SDS011;53956;52.442;13.284;2022-12-18T12:27:33;48.30;;;22.57;;
18125;SDS011;53956;52.442;13.284;2022-12-18T12:30:11;50.60;;;23.40;;
18125;SDS011;53956;52.442;13.284;2022-12-18T12:32:50;49.77;;;24.03;;
18125;SDS011;53956;52.442;13.284;2022-12-18T12:35:29;50.00;;;24.37;;
18125;SDS011;53956;52.442;13.284;2022-12-18T12:38:08;51.17;;;25.17;;
18125;SDS011;53956;52.442;13.284;2022-12-18T12:40:39;50.17;;;24.43;;
18125;SDS011;53956;52.442;13.284;2022-12-18T12:43:12;46.67;;;24.73;;
18125;SDS011;53956;52.442;13.284;2022-12-18T12:45:52;51.03;;;24.00;;
18125;SDS011;53956;52.442;13.284;2022-12-18T12:48:25;46.07;;;22.80;;
18125;SDS011;53956;52.442;13.284;2022-12-18T12:50:58;47.23;;;24.40;;
18125;SDS011;53956;52.442;13.284;2022-12-18T12:53:31;46.70;;;23.60;;
18125;SDS011;53956;52.442;13.284;2022-12-18T12:56:02;49.03;;;24.23;;
18125;SDS011;53956;52.442;13.284;2022-12-18T12:58:31;48.27;;;25.23;;
18125;SDS011;53956;52.442;13.284;2022-12-18T13:01:08;52.83;;;25.17;;
18125;SDS011;53956;52.442;13.284;2022-12-18T13:03:42;50.77;;;24.70;;
18125;SDS011;53956;52.442;13.284;2022-12-18T13:06:16;48.70;;;24.80;;
18125;SDS011;53956;52.442;13.284;2022-12-18T13:08:54;44.67;;;23.80;;
18125;SDS011;53956;52.442;13.284;2022-12-18T13:11:35;48.77;;;23.93;;
18125;SDS011;53956;52.442;13.284;2022-12-18T13:14:23;45.87;;;22.73;;
18125;SDS011;53956;52.442;13.284;2022-12-18T13:17:15;46.70;;;22.90;;
18125;SDS011;53956;52.442;13.284;2022-12-18T13:19:43;46.17;;;23.23;;
18125;SDS011;53956;52.442;13.284;2022-12-18T13:22:20;42.80;;;21.83;;
18125;SDS011;53956;52.442;13.284;2022-12-18T13:24:47;45.40;;;23.40;;
18125;SDS011;53956;52.442;13.284;2022-12-18T13:36:31;45.57;;;22.93;;
18125;SDS011;53956;52.442;13.284;2022-12-18T13:39:09;43.47;;;22.33;;
18125;SDS011;53956;52.442;13.284;2022-12-18T13:41:37;42.60;;;21.90;;
18125;SDS011;53956;52.442;13.284;2022-12-18T13:44:10;43.57;;;23.20;;
18125;SDS011;53956;52.442;13.284;2022-12-18T13:46:42;40.37;;;21.80;;
18125;SDS011;53956;52.442;13.284;2022-12-18T13:49:17;39.87;;;21.23;;
18125;SDS011;53956;52.442;13.284;2022-12-18T13:51:50;39.57;;;22.23;;
18125;SDS011;53956;52.442;13.284;2022-12-18T13:54:19;38.40;;;21.47;;
18125;SDS011;53956;52.442;13.284;2022-12-18T13:56:50;42.43;;;22.20;;
18125;SDS011;53956;52.442;13.284;2022-12-18T13:59:18;45.33;;;23.67;;
18125;SDS011;53956;52.442;13.284;2022-12-18T14:01:48;46.77;;;25.43;;
18125;SDS011;53956;52.442;13.284;2022-12-18T14:04:18;53.70;;;26.27;;
18125;SDS011;53956;52.442;13.284;2022-12-18T14:06:51;50.93;;;26.30;;
18125;SDS011;53956;52.442;13.284;2022-12-18T14:09:21;51.03;;;25.67;;
18125;SDS011;53956;52.442;13.284;2022-12-18T14:11:51;54.13;;;24.87;;
18125;SDS011;53956;52.442;13.284;2022-12-18T14:14:40;49.20;;;25.63;;
18125;SDS011;53956;52.442;13.284;2022-12-18T14:17:10;50.13;;;24.30;;
18125;SDS011;53956;52.442;13.284;2022-12-18T14:19:40;54.80;;;27.17;;
18125;SDS011;53956;52.442;13.284;2022-12-18T14:22:12;50.70;;;25.67;;
18125;SDS011;53956;52.442;13.284;2022-12-18T14:24:42;54.93;;;26.93;;
18125;SDS011;53956;52.442;13.284;2022-12-18T14:27:17;58.80;;;27.80;;
18125;SDS011;53956;52.442;13.284;2022-12-18T14:29:47;60.17;;;27.90;;
18125;SDS011;53956;52.442;13.284;2022-12-18T14:32:15;66.53;;;31.67;;
18125;SDS011;53956;52.442;13.284;2022-12-18T14:34:43;68.00;;;29.17;;
18125;SDS011;53956;52.442;13.284;2022-12-18T14:37:12;72.93;;;32.43;;